createdAt,value
2017-10-20T00:00:39.877Z,12.47
2017-10-20T00:03:07.452Z,12.53
2017-10-20T00:05:35.006Z,11.50
2017-10-20T00:08:02.644Z,11.23
2017-10-20T00:10:30.220Z,12.00
2017-10-20T00:12:57.834Z,12.60
2017-10-20T00:15:25.432Z,12.10
2017-10-20T00:17:53.444Z,13.70
2017-10-20T00:20:21.780Z,12.47
2017-10-20T00:22:49.419Z,13.00
2017-10-20T00:25:16.997Z,12.27
2017-10-20T00:27:44.570Z,12.50
2017-10-20T00:30:12.169Z,12.33
2017-10-20T00:32:42.948Z,11.97
2017-10-20T00:35:10.559Z,12.00
2017-10-20T00:37:38.898Z,12.30
2017-10-20T00:40:06.902Z,11.07
2017-10-20T00:42:34.468Z,11.83
2017-10-20T00:45:03.429Z,12.40
2017-10-20T00:47:31.010Z,11.53
2017-10-20T00:49:59.393Z,12.37
2017-10-20T00:52:26.977Z,13.57
2017-10-20T00:54:54.982Z,13.23
2017-10-20T00:57:22.999Z,12.60
2017-10-20T00:59:50.593Z,12.03
2017-10-20T01:02:18.205Z,12.50
2017-10-20T01:04:45.769Z,11.20
2017-10-20T01:07:13.375Z,11.00
2017-10-20T01:09:41.345Z,11.47
2017-10-20T01:12:08.962Z,10.93
2017-10-20T01:14:36.541Z,11.20
2017-10-20T01:17:04.170Z,10.73
2017-10-20T01:19:31.756Z,12.50
2017-10-20T01:21:59.316Z,11.80
2017-10-20T01:24:26.941Z,11.50
2017-10-20T01:26:55.660Z,11.27
2017-10-20T01:29:23.261Z,11.50
2017-10-20T01:31:50.841Z,12.13
2017-10-20T01:34:18.459Z,12.30
2017-10-20T01:36:46.037Z,11.40
2017-10-20T01:39:13.679Z,11.23
2017-10-20T01:41:41.261Z,11.23
2017-10-20T01:44:08.842Z,11.27
2017-10-20T01:46:36.472Z,10.23
2017-10-20T01:49:04.063Z,10.83
2017-10-20T01:51:31.714Z,11.10
2017-10-20T01:53:59.280Z,11.10
2017-10-20T01:56:26.909Z,11.60
2017-10-20T01:58:54.499Z,10.93
2017-10-20T02:01:22.116Z,10.80
2017-10-20T02:03:50.467Z,11.67
2017-10-20T02:06:18.098Z,11.17
2017-10-20T02:08:45.685Z,12.70
2017-10-20T02:11:13.283Z,11.40
2017-10-20T02:13:41.274Z,11.47
2017-10-20T02:16:09.665Z,11.43
2017-10-20T02:18:38.000Z,11.80
2017-10-20T02:21:05.556Z,11.47
2017-10-20T02:23:33.157Z,12.17
2017-10-20T02:26:01.505Z,11.17
2017-10-20T02:28:29.145Z,10.20
2017-10-20T02:30:56.712Z,11.30
2017-10-20T02:33:24.362Z,10.60
2017-10-20T02:35:51.937Z,10.37
2017-10-20T02:38:19.559Z,11.50
2017-10-20T02:40:47.160Z,10.43
2017-10-20T02:43:15.513Z,11.07
2017-10-20T02:45:43.117Z,11.03
2017-10-20T02:48:11.089Z,11.13
2017-10-20T03:07:58.348Z,11.60
2017-10-20T03:27:35.965Z,12.00
2017-10-20T03:47:23.238Z,10.80
2017-10-20T04:07:10.701Z,14.47
2017-10-20T04:26:55.593Z,13.40
2017-10-20T04:40:56.581Z,12.10
2017-10-20T04:43:26.561Z,15.10
2017-10-20T04:45:54.179Z,14.00
2017-10-20T04:48:21.749Z,13.80
2017-10-20T04:50:49.334Z,13.67
2017-10-20T04:53:18.078Z,12.90
2017-10-20T04:55:45.653Z,13.50
2017-10-20T04:58:13.297Z,15.03
2017-10-20T05:00:40.860Z,13.70
2017-10-20T05:03:08.861Z,14.63
2017-10-20T05:05:36.427Z,14.97
2017-10-20T05:08:04.044Z,13.90
2017-10-20T05:10:31.612Z,15.57
2017-10-20T05:12:59.237Z,13.70
2017-10-20T05:15:26.796Z,14.43
2017-10-20T05:17:54.355Z,14.10
2017-10-20T05:20:21.973Z,15.63
2017-10-20T05:22:50.924Z,15.60
2017-10-20T05:25:18.536Z,15.23
2017-10-20T05:27:46.099Z,16.20
2017-10-20T05:47:33.777Z,14.77
2017-10-20T05:50:15.983Z,15.00
2017-10-20T05:52:43.580Z,15.87
2017-10-20T05:55:12.643Z,16.50
2017-10-20T05:57:41.601Z,14.30
2017-10-20T06:00:09.572Z,14.13
2017-10-20T06:02:37.916Z,13.80
2017-10-20T06:05:06.673Z,15.30
2017-10-20T06:07:35.012Z,16.00
2017-10-20T06:10:02.609Z,15.43
2017-10-20T06:12:30.188Z,14.93
2017-10-20T06:14:58.196Z,15.73
2017-10-20T06:17:44.772Z,15.20
2017-10-20T06:20:12.377Z,18.73
2017-10-20T06:22:39.949Z,17.70
2017-10-20T06:25:08.333Z,20.30
2017-10-20T06:27:36.632Z,18.17
2017-10-20T06:30:04.193Z,18.13
2017-10-20T06:32:33.151Z,17.67
2017-10-20T06:35:02.217Z,19.60
2017-10-20T06:37:29.833Z,19.30
2017-10-20T06:39:57.803Z,18.97
2017-10-20T06:42:26.760Z,17.00
2017-10-20T06:44:54.335Z,15.67
2017-10-20T06:47:21.992Z,17.00
2017-10-20T06:49:49.577Z,16.17
2017-10-20T06:52:17.190Z,16.20
2017-10-20T06:54:44.768Z,17.53
2017-10-20T06:57:12.421Z,18.03
2017-10-20T06:59:39.985Z,17.73
2017-10-20T07:02:07.573Z,19.43
2017-10-20T07:04:35.189Z,17.10
2017-10-20T07:07:02.761Z,17.60
2017-10-20T07:09:30.387Z,17.10
2017-10-20T07:11:57.963Z,18.83
2017-10-20T07:14:25.577Z,19.30
2017-10-20T07:16:54.308Z,19.67
2017-10-20T07:19:42.734Z,20.20
2017-10-20T07:22:10.313Z,22.60
2017-10-20T07:24:37.954Z,21.10
2017-10-20T07:27:06.302Z,19.60
2017-10-20T07:29:33.889Z,18.67
2017-10-20T07:32:01.488Z,20.13
2017-10-20T07:34:29.453Z,20.17
2017-10-20T07:36:57.456Z,20.80
2017-10-20T07:39:25.013Z,22.33
2017-10-20T07:41:52.646Z,22.53
2017-10-20T07:44:21.571Z,22.87
2017-10-20T07:46:49.152Z,22.73
2017-10-20T07:49:16.769Z,22.97
2017-10-20T07:51:45.680Z,22.70
2017-10-20T07:54:14.079Z,22.40
2017-10-20T07:56:41.659Z,21.20
2017-10-20T07:59:10.037Z,22.30
2017-10-20T08:01:39.130Z,21.27
2017-10-20T08:04:06.737Z,21.80
2017-10-20T08:06:34.702Z,21.80
2017-10-20T08:09:02.338Z,23.30
2017-10-20T08:11:29.925Z,23.90
2017-10-20T08:13:58.273Z,24.63
2017-10-20T08:16:27.036Z,25.33
2017-10-20T08:18:54.596Z,23.60
2017-10-20T08:21:22.208Z,20.70
2017-10-20T08:23:51.290Z,21.57
2017-10-20T08:26:19.677Z,21.90
2017-10-20T08:28:47.241Z,22.00
2017-10-20T08:31:14.852Z,22.70
2017-10-20T08:33:42.424Z,23.07
2017-10-20T08:36:10.047Z,23.50
2017-10-20T08:38:37.607Z,25.03
2017-10-20T08:41:05.997Z,26.80
2017-10-20T08:43:34.728Z,23.80
2017-10-20T08:46:02.294Z,23.63
2017-10-20T08:48:29.920Z,23.63
2017-10-20T08:50:57.509Z,23.60
2017-10-20T08:53:25.121Z,24.50
2017-10-20T08:55:54.198Z,24.20
2017-10-20T08:58:21.877Z,23.50
2017-10-20T09:00:49.449Z,24.57
2017-10-20T09:03:17.075Z,24.60
2017-10-20T09:05:44.654Z,23.97
2017-10-20T09:08:12.229Z,23.13
2017-10-20T09:10:39.853Z,22.17
2017-10-20T09:13:07.411Z,21.77
2017-10-20T09:15:35.810Z,22.00
2017-10-20T09:18:03.776Z,19.83
2017-10-20T09:20:31.802Z,18.10
2017-10-20T09:22:59.397Z,18.80
2017-10-20T09:25:27.013Z,18.90
2017-10-20T09:27:54.570Z,19.70
2017-10-20T09:30:22.182Z,19.17
2017-10-20T09:32:49.754Z,18.97
2017-10-20T09:35:17.380Z,18.93
2017-10-20T09:37:44.958Z,19.50
2017-10-20T09:40:12.534Z,19.37
2017-10-20T09:42:40.185Z,19.87
2017-10-20T09:45:08.150Z,19.70
2017-10-20T09:47:36.566Z,18.10
2017-10-20T09:50:04.128Z,17.93
2017-10-20T09:52:31.740Z,19.37
2017-10-20T09:54:59.316Z,18.63
2017-10-20T09:57:26.907Z,18.40
2017-10-20T09:59:54.602Z,18.63
2017-10-20T10:02:22.180Z,19.40
2017-10-20T10:04:49.821Z,20.23
2017-10-20T10:07:17.396Z,20.77
2017-10-20T10:09:45.417Z,20.73
2017-10-20T10:12:13.006Z,19.47
2017-10-20T10:14:41.011Z,19.63
2017-10-20T10:17:09.369Z,18.77
2017-10-20T10:19:37.028Z,18.80
2017-10-20T10:22:04.589Z,20.30
2017-10-20T10:24:32.165Z,19.70
2017-10-20T10:26:59.789Z,19.30
2017-10-20T10:29:27.778Z,18.53
2017-10-20T10:31:56.713Z,19.67
2017-10-20T10:34:24.274Z,20.50
2017-10-20T10:36:51.885Z,21.60
2017-10-20T10:39:19.463Z,20.57
2017-10-20T10:41:47.873Z,19.60
2017-10-20T10:44:15.460Z,19.40
2017-10-20T10:46:43.083Z,19.23
2017-10-20T10:49:10.649Z,18.90
2017-10-20T10:51:38.256Z,20.60
2017-10-20T10:54:05.834Z,16.43
2017-10-20T10:56:33.425Z,20.20
2017-10-20T10:59:01.050Z,18.80
2017-10-20T11:01:28.613Z,19.00
2017-10-20T11:03:56.278Z,18.37
2017-10-20T11:06:35.638Z,18.70
2017-10-20T11:09:16.314Z,18.20
2017-10-20T11:11:55.535Z,17.63
2017-10-20T11:14:23.535Z,17.40
2017-10-20T11:16:51.093Z,21.53
2017-10-20T11:19:18.693Z,20.10
2017-10-20T11:21:46.281Z,21.80
2017-10-20T11:24:13.914Z,21.43
2017-10-20T11:26:41.502Z,19.60
2017-10-20T11:29:09.473Z,21.33
2017-10-20T11:31:37.098Z,18.93
2017-10-20T11:34:05.073Z,21.77
2017-10-20T11:36:32.706Z,18.57
2017-10-20T11:39:00.273Z,18.90
2017-10-20T11:41:27.870Z,17.77
2017-10-20T11:43:55.510Z,19.30
2017-10-20T11:46:23.156Z,17.50
2017-10-20T11:48:51.526Z,16.57
2017-10-20T11:51:19.877Z,17.00
2017-10-20T11:53:47.476Z,17.43
2017-10-20T11:56:15.067Z,17.53
2017-10-20T11:58:42.674Z,16.90
2017-10-20T12:01:10.243Z,16.80
2017-10-20T12:03:38.261Z,17.57
2017-10-20T12:06:05.840Z,17.70
2017-10-20T12:08:33.441Z,18.37
2017-10-20T12:11:01.024Z,18.30
2017-10-20T12:13:28.638Z,17.20
2017-10-20T12:15:56.237Z,17.30
2017-10-20T12:18:23.857Z,16.90
2017-10-20T12:20:51.432Z,16.43
2017-10-20T12:23:19.075Z,15.53
2017-10-20T12:25:46.651Z,16.53
2017-10-20T12:28:14.276Z,17.07
2017-10-20T12:30:42.858Z,16.67
2017-10-20T12:33:10.434Z,14.00
2017-10-20T12:35:38.043Z,14.00
2017-10-20T12:38:05.601Z,13.57
2017-10-20T12:40:33.213Z,13.57
2017-10-20T12:43:01.193Z,13.63
2017-10-20T12:45:28.847Z,13.20
2017-10-20T12:47:56.416Z,14.80
2017-10-20T12:50:24.038Z,13.90
2017-10-20T12:52:51.617Z,15.07
2017-10-20T12:55:19.631Z,12.10
2017-10-20T12:57:47.193Z,9.27
2017-10-20T13:00:14.821Z,8.70
2017-10-20T13:02:42.793Z,10.10
2017-10-20T13:05:10.375Z,10.50
2017-10-20T13:07:37.991Z,10.00
2017-10-20T13:10:06.314Z,10.20
2017-10-20T13:12:33.931Z,9.60
2017-10-20T13:15:01.897Z,9.20
2017-10-20T13:17:30.271Z,9.27
2017-10-20T13:19:57.845Z,9.40
2017-10-20T13:22:25.472Z,9.70
2017-10-20T13:24:53.848Z,9.27
2017-10-20T13:27:21.443Z,9.60
2017-10-20T13:29:49.035Z,10.03
2017-10-20T13:32:16.671Z,9.37
2017-10-20T13:34:44.249Z,9.47
2017-10-20T13:37:12.579Z,9.00
2017-10-20T13:39:40.185Z,9.10
2017-10-20T13:42:08.514Z,7.70
2017-10-20T13:44:36.119Z,8.10
2017-10-20T13:47:04.092Z,7.83
2017-10-20T13:49:32.467Z,6.60
2017-10-20T13:52:01.305Z,6.80
2017-10-20T13:54:28.944Z,6.70
2017-10-20T13:56:56.526Z,6.70
2017-10-20T13:59:24.133Z,6.70
2017-10-20T14:01:51.700Z,6.10
2017-10-20T14:04:20.451Z,5.93
2017-10-20T14:06:48.419Z,7.10
2017-10-20T14:09:17.735Z,6.60
2017-10-20T14:11:45.354Z,6.40
2017-10-20T14:14:13.325Z,6.77
2017-10-20T14:16:41.706Z,5.90
2017-10-20T14:19:10.059Z,6.67
2017-10-20T14:21:38.390Z,6.40
2017-10-20T14:24:05.968Z,6.57
2017-10-20T14:26:33.573Z,6.40
2017-10-20T14:29:01.342Z,6.97
2017-10-20T14:31:29.250Z,6.70
2017-10-20T14:33:56.922Z,6.13
2017-10-20T14:36:24.521Z,7.20
2017-10-20T14:38:52.416Z,6.60
2017-10-20T14:41:20.889Z,6.83
2017-10-20T14:43:48.682Z,6.50
2017-10-20T14:46:17.431Z,6.63
2017-10-20T14:48:45.335Z,7.33
2017-10-20T14:51:14.070Z,8.10
2017-10-20T14:53:41.853Z,7.20
2017-10-20T14:56:09.881Z,7.20
2017-10-20T14:58:47.293Z,7.60
2017-10-20T15:01:14.934Z,7.50
2017-10-20T15:03:43.639Z,7.13
2017-10-20T15:06:12.049Z,7.70
2017-10-20T15:08:40.028Z,7.43
2017-10-20T15:11:07.657Z,7.37
2017-10-20T15:13:36.020Z,8.20
2017-10-20T15:16:03.665Z,7.10
2017-10-20T15:18:31.237Z,7.47
2017-10-20T15:20:58.797Z,8.10
2017-10-20T15:23:27.193Z,7.80
2017-10-20T15:25:54.780Z,7.40
2017-10-20T15:28:22.389Z,8.27
2017-10-20T15:30:49.950Z,8.20
2017-10-20T15:33:17.561Z,8.07
2017-10-20T15:35:45.524Z,8.33
2017-10-20T15:38:13.529Z,8.70
2017-10-20T15:40:41.153Z,8.50
2017-10-20T15:43:09.528Z,9.33
2017-10-20T15:45:37.088Z,8.70
2017-10-20T15:48:04.703Z,8.27
2017-10-20T15:50:32.665Z,8.60
2017-10-20T15:53:01.048Z,8.13
2017-10-20T15:55:29.402Z,7.70
2017-10-20T15:57:57.021Z,8.53
2017-10-20T16:00:25.357Z,8.80
2017-10-20T16:02:52.975Z,8.50
2017-10-20T16:05:20.558Z,8.00
2017-10-20T16:07:48.182Z,9.20
2017-10-20T16:10:15.754Z,8.40
2017-10-20T16:12:43.336Z,8.47
2017-10-20T16:15:11.712Z,7.93
2017-10-20T16:17:39.289Z,8.00
2017-10-20T16:20:06.906Z,8.40
2017-10-20T16:22:35.247Z,8.40
2017-10-20T16:25:03.654Z,8.33
2017-10-20T16:27:31.213Z,9.10
2017-10-20T16:29:58.821Z,8.60
2017-10-20T16:32:27.769Z,9.53
2017-10-20T16:34:55.727Z,9.70
2017-10-20T16:37:24.125Z,9.33
2017-10-20T16:39:51.700Z,10.23
2017-10-20T16:42:19.317Z,9.53
2017-10-20T16:44:46.879Z,9.20
2017-10-20T16:47:14.493Z,9.23
2017-10-20T16:49:42.074Z,9.27
2017-10-20T16:52:09.713Z,9.67
2017-10-20T16:54:38.037Z,10.40
2017-10-20T16:57:06.001Z,9.70
2017-10-20T16:59:33.617Z,10.20
2017-10-20T17:02:01.188Z,10.03
2017-10-20T17:04:28.815Z,10.57
2017-10-20T17:06:56.377Z,10.90
2017-10-20T17:09:23.994Z,9.43
2017-10-20T17:11:51.557Z,11.27
2017-10-20T17:14:19.168Z,11.10
2017-10-20T17:16:46.749Z,10.53
2017-10-20T17:19:14.390Z,9.60
2017-10-20T17:21:42.361Z,9.93
2017-10-20T17:24:09.998Z,10.00
2017-10-20T17:26:37.554Z,9.90
2017-10-20T17:29:05.185Z,10.10
2017-10-20T17:31:32.774Z,9.40
2017-10-20T17:34:01.110Z,9.90
2017-10-20T17:36:28.729Z,9.97
2017-10-20T17:38:56.303Z,10.43
2017-10-20T17:41:23.951Z,10.63
2017-10-20T17:43:52.281Z,11.50
2017-10-20T17:46:19.904Z,10.60
2017-10-20T17:48:48.245Z,10.10
2017-10-20T17:51:15.861Z,10.20
2017-10-20T17:53:43.461Z,9.53
2017-10-20T17:56:11.061Z,10.47
2017-10-20T17:58:38.649Z,11.03
2017-10-20T18:01:06.269Z,10.27
2017-10-20T18:03:33.864Z,11.20
2017-10-20T18:06:01.429Z,11.60
2017-10-20T18:08:29.055Z,11.97
2017-10-20T18:10:56.645Z,11.20
2017-10-20T18:13:24.253Z,11.80
2017-10-20T18:15:51.828Z,11.43
2017-10-20T18:18:19.829Z,11.00
2017-10-20T18:20:48.165Z,10.43
2017-10-20T18:23:16.141Z,10.70
2017-10-20T18:25:43.766Z,10.47
2017-10-20T18:28:11.347Z,10.10
2017-10-20T18:30:38.985Z,10.37
2017-10-20T18:33:06.545Z,10.17
2017-10-20T18:35:34.619Z,9.50
2017-10-20T18:38:02.191Z,10.13
2017-10-20T18:40:29.831Z,10.00
2017-10-20T18:42:57.390Z,11.87
2017-10-20T18:45:24.993Z,10.70
2017-10-20T18:47:52.588Z,9.93
2017-10-20T18:50:20.581Z,10.73
2017-10-20T18:52:48.952Z,10.90
2017-10-20T18:55:16.573Z,9.83
2017-10-20T18:57:44.142Z,10.03
2017-10-20T19:00:12.409Z,10.93
2017-10-20T19:02:40.038Z,11.17
2017-10-20T19:05:08.384Z,11.27
2017-10-20T19:07:37.485Z,12.23
2017-10-20T19:10:05.073Z,12.97
2017-10-20T19:12:33.944Z,13.77
2017-10-20T19:15:01.913Z,12.57
2017-10-20T19:17:29.524Z,13.10
2017-10-20T19:19:57.134Z,14.40
2017-10-20T19:22:25.154Z,13.20
2017-10-20T19:24:53.500Z,13.60
2017-10-20T19:27:21.118Z,12.73
2017-10-20T19:29:50.112Z,13.73
2017-10-20T19:32:17.730Z,15.50
2017-10-20T19:34:45.303Z,14.03
2017-10-20T19:37:12.888Z,15.50
2017-10-20T19:39:40.506Z,14.73
2017-10-20T19:42:08.843Z,13.20
2017-10-20T19:44:36.457Z,14.97
2017-10-20T19:47:04.017Z,15.20
2017-10-20T19:49:32.389Z,15.70
2017-10-20T19:51:59.977Z,15.37
2017-10-20T19:54:27.604Z,14.10
2017-10-20T19:56:55.174Z,14.93
2017-10-20T19:59:23.133Z,13.43
2017-10-20T20:01:50.757Z,15.90
2017-10-20T20:04:19.099Z,16.63
2017-10-20T20:06:47.131Z,16.37
2017-10-20T20:09:15.102Z,14.60
2017-10-20T20:11:42.715Z,15.07
2017-10-20T20:14:11.050Z,15.77
2017-10-20T20:16:38.698Z,15.33
2017-10-20T20:19:06.262Z,18.43
2017-10-20T20:21:33.974Z,17.10
2017-10-20T20:24:01.946Z,16.23
2017-10-20T20:26:29.545Z,16.00
2017-10-20T20:28:57.161Z,13.77
2017-10-20T20:31:27.359Z,14.97
2017-10-20T20:33:58.677Z,13.57
2017-10-20T20:36:26.264Z,14.37
2017-10-20T20:38:53.885Z,13.07
2017-10-20T20:41:21.892Z,12.30
2017-10-20T20:43:49.574Z,12.00
2017-10-20T20:46:17.153Z,11.73
2017-10-20T20:48:44.772Z,12.27
2017-10-20T20:51:12.351Z,17.77
2017-10-20T20:53:39.960Z,27.43
2017-10-20T20:56:07.550Z,20.40
2017-10-20T20:58:35.172Z,14.67
2017-10-20T21:01:02.768Z,12.40
2017-10-20T21:03:30.350Z,13.27
2017-10-20T21:05:57.957Z,12.50
2017-10-20T21:08:25.811Z,13.53
2017-10-20T21:10:54.773Z,16.10
2017-10-20T21:13:22.744Z,15.93
2017-10-20T21:15:51.699Z,15.27
2017-10-20T21:18:19.278Z,20.63
2017-10-20T21:20:46.919Z,16.03
2017-10-20T21:23:15.842Z,14.67
2017-10-20T21:25:44.185Z,15.80
2017-10-20T21:28:11.804Z,14.20
2017-10-20T21:30:40.717Z,14.77
2017-10-20T21:33:08.450Z,14.67
2017-10-20T21:35:36.180Z,13.80
2017-10-20T21:38:03.821Z,14.10
2017-10-20T21:40:31.453Z,13.70
2017-10-20T21:42:59.465Z,13.33
2017-10-20T21:45:28.169Z,14.37
2017-10-20T21:47:55.813Z,14.97
2017-10-20T21:50:23.389Z,14.80
2017-10-20T21:52:51.394Z,14.70
2017-10-20T21:55:20.348Z,14.20
2017-10-20T21:57:49.477Z,13.30
2017-10-20T22:00:17.817Z,14.20
2017-10-20T22:02:46.197Z,13.87
2017-10-20T22:05:15.133Z,14.10
2017-10-20T22:07:43.938Z,13.80
2017-10-20T22:10:11.925Z,14.37
2017-10-20T22:12:39.538Z,14.37
2017-10-20T22:15:07.125Z,13.53
2017-10-20T22:17:34.727Z,15.10
2017-10-20T22:20:02.367Z,14.43
2017-10-20T22:22:29.973Z,14.73
2017-10-20T22:24:57.602Z,15.30
2017-10-20T22:27:25.192Z,14.77
2017-10-20T22:29:52.803Z,14.53
2017-10-20T22:32:20.377Z,13.70
2017-10-20T22:34:48.025Z,14.07
2017-10-20T22:37:15.591Z,14.30
2017-10-20T22:39:43.225Z,15.03
2017-10-20T22:42:10.800Z,17.13
2017-10-20T22:44:38.372Z,18.23
2017-10-20T22:47:06.785Z,17.17
2017-10-20T22:49:34.345Z,17.53
2017-10-20T22:52:02.771Z,17.30
2017-10-20T22:54:30.745Z,16.57
2017-10-20T22:56:58.749Z,16.33
2017-10-20T22:59:26.373Z,16.67
2017-10-20T23:01:53.972Z,16.50
2017-10-20T23:04:21.609Z,17.57
2017-10-20T23:06:49.965Z,18.47
2017-10-20T23:09:17.572Z,17.10
2017-10-20T23:11:45.133Z,16.80
2017-10-20T23:14:12.746Z,16.57
2017-10-20T23:16:40.317Z,16.73
2017-10-20T23:19:07.940Z,16.07
2017-10-20T23:21:35.547Z,15.30
2017-10-20T23:24:03.182Z,16.70
2017-10-20T23:26:30.750Z,15.93
2017-10-20T23:28:58.377Z,15.63
2017-10-20T23:31:25.957Z,16.17
2017-10-20T23:33:53.519Z,16.50
2017-10-20T23:36:21.121Z,17.03
2017-10-20T23:38:48.680Z,17.07
2017-10-20T23:41:16.289Z,16.30
2017-10-20T23:43:44.619Z,16.53
2017-10-20T23:46:12.238Z,16.27
2017-10-20T23:48:39.802Z,15.90
2017-10-20T23:51:07.839Z,16.20
2017-10-20T23:53:35.430Z,15.57
2017-10-20T23:56:03.020Z,14.77
2017-10-20T23:58:30.633Z,16.00
